首页
METAR-TAF:

METAR-TAF

机场 :

錫永機場

锡永, 瑞士

纬度: 46-13N, 经度: 007-20E, 海拔: 482米

当前天气观测

该预报发布于25分钟前的21:20 UTC
静风
温度 23°C
湿度 50%
气压 1014 hPa
能见度10公里或以上
少量云层高于8000英尺
多云层高于14000英尺

METAR: LSGS 192120Z AUTO 00000KT 9999 FEW080 BKN140 //////TCU 23/12 Q1014

时间: 23:45 (21:45 UTC)

预报

该预报发布于5小时和56分钟前的15:49 UTC
预报有效从19日的 15点(UTC)到 19日的 24点(UTC)
风速16节,风向西转西南
能见度10公里或以上
散云层高于10000英尺
几率 40% :
短暂存在
从 19日的 17点(UTC)到 19日的 20点(UTC)
散云层高于6000英尺, 积雨云.
雷暴, 雨
成为
从 19日的 22点(UTC)到 19日的 24点(UTC)
风速3节,风向多变

TAF: LSGS 191549Z 1915/1924 25016KT 9999 SCT100 PROB40 TEMPO 1917/1920 TSRA SCT060CB BECMG 1922/1924 VRB03KT

超过4000个机场的气象观测和天气预报(METAR&TAF报告)。

可查询的气象台以黄色和红色小点在地图上表示。

将鼠标移到小点上方,可查看气象台名称。

然后点击查看天气观测和预报。

如需切换地图:点击带黑十字的绿色按钮放大地图;点击带横线的绿色按钮缩小地图;或者点击绿色箭头查看邻近地区的地图。


METAR-TAF: